KMCB/MCB METAR and TAF weather

Enter ICAO airport designator
Station Type Date Time Source
KMCB METAR 2018/12/10 02:53 UTC NOAA

KMCB 100253Z AUTO 33009KT 10SM OVC007 04/02 A3021 RMK AO2 SLP232 T00390017 51010


Station Type Date Time Source
KMCB Decoded METAR 2018/12/10 02:53 UTC NOAA

MCCOMB/PIKE COUNTY AIRPORT, MS, United States (KMCB) 31-11N 90-28W 124M
Dec 09, 2018 - 09:53 PM EST / 2018.12.10 0253 UTC
Wind: from the NNW (330 degrees) at 10 MPH (9 KT):0
Visibility: 10 mile(s):0
Sky conditions: overcast
Temperature: 39.0 F (3.9 C)
Dew Point: 35.1 F (1.7 C)
Relative Humidity: 85%
Pressure (altimeter): 30.21 in. Hg (1023 hPa)
Pressure tendency: 0.03 inches (1.0 hPa) higher than three hours ago
ob: KMCB 100253Z AUTO 33009KT 10SM OVC007 04/02 A3021 RMK AO2 SLP232 T00390017 51010
cycle: 3

Station Type Date Time Source
KMCB TAF 2018/12/09 18:30 UTC NOAA

TAF KMCB 091728Z 0918/1018 33011KT P6SM OVC008
FM100600 34008KT P6SM BKN015 BKN090
FM101000 34007KT P6SM FEW090 SCT110


Example: see airport list